Time;durP1;ratioP1;P1;durP2;ratioP2;P2;SDS_P1;SDS_P2;PMS_P1;PMS_P2;Temp;Humidity;BMP_temperature;BMP_pressure;BME280_temperature;BME280_humidity;BME280_pressure;Samples;Min_cycle;Max_cycle;Signal;HPM_P1;HPM_P2
2024/02/24 00:01:57;;;;;;;2.03;1.05;;;;;;;9.04;54.27;97111.63;5070352;28;20056;-49
2024/02/24 00:04:23;;;;;;;1.63;0.85;;;;;;;9.03;54.63;97129.13;5071591;28;20494;-48
2024/02/24 00:06:48;;;;;;;3.85;1.00;;;;;;;8.99;53.95;97128.81;5070256;28;20073;-48
2024/02/24 00:09:14;;;;;;;7.57;0.57;;;;;;;9.01;56.99;97133.81;5071482;28;20021;-49
2024/02/24 00:11:41;;;;;;;8.80;3.22;;;;;;;9.05;58.39;97140.16;5071540;28;20537;-48
2024/02/24 00:14:06;;;;;;;4.43;1.55;;;;;;;8.99;56.73;97120.16;5070248;28;20025;-48
2024/02/24 00:16:32;;;;;;;3.85;1.33;;;;;;;8.96;57.72;97131.09;5071428;28;20032;-48
2024/02/24 00:18:59;;;;;;;4.82;1.00;;;;;;;9.01;56.33;97149.50;5071483;28;20027;-49
2024/02/24 00:21:28;;;;;;;3.38;1.10;;;;;;;9.15;55.49;97148.25;5071402;28;20029;-49
2024/02/24 00:23:53;;;;;;;0.93;0.50;;;;;;;9.23;54.23;97138.47;5071317;28;20104;-48
2024/02/24 00:26:19;;;;;;;5.10;2.83;;;;;;;9.13;55.13;97150.28;5074170;28;20021;-49
2024/02/24 00:28:45;;;;;;;3.00;2.67;;;;;;;9.10;54.00;97161.22;5074932;28;20048;-49
2024/02/24 00:31:10;;;;;;;7.57;5.20;;;;;;;9.08;54.54;97159.88;5075168;28;20497;-49
2024/02/24 00:33:36;;;;;;;5.30;4.47;;;;;;;9.15;55.80;97178.84;5075063;28;20372;-48
2024/02/24 00:36:03;;;;;;;3.17;1.00;;;;;;;9.23;54.70;97154.97;5075096;28;20025;-49
2024/02/24 00:38:29;;;;;;;2.78;1.58;;;;;;;9.23;53.98;97173.28;5074915;28;20029;-49
2024/02/24 00:40:54;;;;;;;4.70;2.60;;;;;;;9.21;54.82;97159.63;5075234;28;20445;-49
2024/02/24 00:43:20;;;;;;;2.13;1.50;;;;;;;9.23;54.38;97173.28;5073593;28;20035;-49
2024/02/24 00:45:47;;;;;;;2.75;1.23;;;;;;;9.27;54.56;97177.03;5074893;28;20059;-49
2024/02/24 00:48:12;;;;;;;4.13;1.02;;;;;;;9.28;53.52;97159.53;5074739;28;20051;-49
2024/02/24 00:50:38;;;;;;;0.82;0.70;;;;;;;9.13;54.59;97159.97;5074786;28;20494;-48
2024/02/24 00:53:04;;;;;;;4.50;0.80;;;;;;;9.16;54.37;97176.03;5073477;28;20033;-49
2024/02/24 00:55:29;;;;;;;3.85;0.90;;;;;;;9.14;53.79;97154.50;5074691;28;20029;-48
2024/02/24 00:57:55;;;;;;;2.75;1.00;;;;;;;9.08;54.84;97167.72;5074665;28;20044;-48
2024/02/24 01:00:21;;;;;;;1.02;0.70;;;;;;;9.13;54.91;97170.44;5073251;28;20081;-49
2024/02/24 01:02:47;;;;;;;1.85;0.90;;;;;;;9.23;54.72;97157.56;5073301;28;20406;-49
2024/02/24 01:05:12;;;;;;;3.25;0.80;;;;;;;9.25;54.65;97175.69;5073239;28;20169;-48
2024/02/24 01:07:38;;;;;;;2.38;0.77;;;;;;;9.28;55.92;97177.84;5056457;28;20028;-49
2024/02/24 01:10:04;;;;;;;2.15;0.70;;;;;;;9.06;55.66;97172.41;5074463;28;20020;-48
2024/02/24 01:12:30;;;;;;;3.03;0.70;;;;;;;8.99;57.14;97177.72;5073067;28;20027;-49
2024/02/24 01:14:55;;;;;;;2.03;0.75;;;;;;;9.03;56.68;97181.47;5073120;28;20032;-49
2024/02/24 01:17:21;;;;;;;2.17;0.50;;;;;;;9.04;56.34;97190.16;5073018;28;20033;-49
2024/02/24 01:19:47;;;;;;;9.52;7.45;;;;;;;9.03;56.14;97180.69;5072977;28;20028;-48
2024/02/24 01:22:13;;;;;;;4.20;3.08;;;;;;;8.93;55.66;97184.69;5074215;28;20024;-48
2024/02/24 01:24:39;;;;;;;5.93;3.90;;;;;;;8.87;55.98;97216.94;5074182;28;20021;-48
2024/02/24 01:27:05;;;;;;;4.32;1.73;;;;;;;8.79;56.27;97196.34;5072817;28;20017;-49
2024/02/24 01:29:31;;;;;;;2.90;0.95;;;;;;;8.77;55.28;97201.00;5072518;28;20494;-48
2024/02/24 01:32:00;;;;;;;3.15;2.05;;;;;;;8.64;57.34;97188.16;5074608;28;20033;-48
2024/02/24 01:34:27;;;;;;;2.10;1.58;;;;;;;8.67;57.30;97193.75;5073953;28;20553;-49
2024/02/24 01:36:53;;;;;;;1.80;1.05;;;;;;;8.77;58.29;97193.16;5072834;28;20402;-48
2024/02/24 01:39:19;;;;;;;1.60;0.90;;;;;;;8.87;57.43;97192.63;5073879;28;20108;-48
2024/02/24 01:41:45;;;;;;;1.75;0.80;;;;;;;8.88;57.60;97179.31;5072549;28;20518;-49
2024/02/24 01:44:11;;;;;;;2.55;1.17;;;;;;;8.82;57.32;97206.38;5073758;28;20021;-49
2024/02/24 01:46:37;;;;;;;2.58;1.20;;;;;;;8.82;57.07;97193.31;5073749;28;20035;-49
2024/02/24 01:49:03;;;;;;;0.73;0.55;;;;;;;8.90;56.29;97200.81;5073961;28;20482;-48
2024/02/24 01:51:28;;;;;;;2.65;0.47;;;;;;;8.85;56.97;97195.44;5073667;28;20521;-49
2024/02/24 01:53:56;;;;;;;1.52;0.93;;;;;;;8.94;57.00;97188.09;5073644;28;20510;-49
2024/02/24 01:56:24;;;;;;;3.15;0.70;;;;;;;9.00;56.06;97210.72;5073934;28;20025;-48
2024/02/24 01:58:50;;;;;;;0.75;0.60;;;;;;;8.95;56.11;97203.56;5073584;28;20039;-49
2024/02/24 02:01:17;;;;;;;5.95;0.82;;;;;;;8.90;55.35;97213.91;5073409;28;20442;-48
2024/02/24 02:03:43;;;;;;;2.55;2.35;;;;;;;8.89;55.80;97209.66;5073411;28;20024;-49
2024/02/24 02:06:08;;;;;;;1.50;0.80;;;;;;;8.96;56.22;97207.75;5072353;28;20085;-49
2024/02/24 02:08:34;;;;;;;2.33;0.80;;;;;;;8.98;55.76;97216.19;5073229;28;20026;-46
2024/02/24 02:11:00;;;;;;;3.13;1.13;;;;;;;9.10;56.31;97216.19;5072048;28;20036;-46
2024/02/24 02:13:25;;;;;;;1.13;0.70;;;;;;;9.07;55.36;97213.22;5073224;28;20372;-46
2024/02/24 02:15:53;;;;;;;1.20;0.80;;;;;;;9.06;55.90;97211.66;5071866;28;20020;-47
2024/02/24 02:18:20;;;;;;;4.45;0.95;;;;;;;9.05;55.71;97213.44;5071941;28;20033;-46
2024/02/24 02:20:48;;;;;;;6.30;1.13;;;;;;;9.07;54.95;97221.06;5071762;28;20165;-47
2024/02/24 02:23:14;;;;;;;4.13;1.00;;;;;;;9.03;55.86;97215.50;5073044;28;20055;-47
2024/02/24 02:25:40;;;;;;;7.05;1.63;;;;;;;8.98;55.87;97225.84;5071663;28;20106;-46
2024/02/24 02:28:05;;;;;;;8.65;1.65;;;;;;;8.86;55.52;97206.72;5072604;28;20170;-46
2024/02/24 02:30:31;;;;;;;1.15;0.63;;;;;;;8.85;56.01;97216.38;5071624;28;20490;-47
2024/02/24 02:32:57;;;;;;;1.17;0.75;;;;;;;8.76;55.84;97221.16;5071549;28;20513;-46
2024/02/24 02:35:23;;;;;;;3.47;0.70;;;;;;;8.58;56.76;97210.75;5072701;28;20491;-46
2024/02/24 02:37:49;;;;;;;3.72;1.70;;;;;;;8.45;57.44;97217.00;5071432;28;20028;-47
2024/02/24 02:40:15;;;;;;;1.60;0.90;;;;;;;8.45;57.33;97219.59;5072648;28;20035;-46
2024/02/24 02:42:40;;;;;;;2.35;0.77;;;;;;;8.33;57.85;97208.25;5071423;28;20035;-46
2024/02/24 02:45:07;;;;;;;2.95;1.65;;;;;;;8.09;57.75;97220.44;5072615;28;20032;-46
2024/02/24 02:47:32;;;;;;;2.10;0.82;;;;;;;7.97;58.67;97197.69;5072294;28;20139;-47
2024/02/24 02:49:58;;;;;;;2.67;1.02;;;;;;;7.88;59.12;97219.09;5054541;28;20465;-46
2024/02/24 02:52:24;;;;;;;3.38;1.55;;;;;;;7.88;60.02;97206.03;5071175;28;20070;-46
2024/02/24 02:54:50;;;;;;;0.98;0.60;;;;;;;8.00;59.64;97222.56;5071230;28;20479;-47
2024/02/24 02:57:17;;;;;;;1.98;0.90;;;;;;;8.01;59.14;97205.88;5054407;28;20501;-46
2024/02/24 02:59:42;;;;;;;3.20;0.90;;;;;;;8.02;59.97;97223.13;5071069;28;20108;-46
2024/02/24 03:02:08;;;;;;;2.92;0.63;;;;;;;8.05;59.57;97227.94;5054362;28;20131;-46
2024/02/24 03:04:35;;;;;;;4.00;0.82;;;;;;;8.07;59.65;97204.19;5070953;28;20120;-46
2024/02/24 03:07:01;;;;;;;1.80;1.08;;;;;;;8.05;58.79;97229.72;5072261;28;20035;-46
2024/02/24 03:09:26;;;;;;;2.45;1.23;;;;;;;7.94;59.99;97224.22;5072071;28;20017;-46
2024/02/24 03:11:52;;;;;;;0.82;0.50;;;;;;;7.90;59.56;97224.91;5072223;28;20020;-47
2024/02/24 03:14:18;;;;;;;4.15;0.85;;;;;;;7.87;59.43;97207.84;5072150;28;20047;-46
2024/02/24 03:16:44;;;;;;;2.25;0.80;;;;;;;7.76;59.76;97217.19;5072097;28;20116;-46
2024/02/24 03:19:10;;;;;;;2.15;0.70;;;;;;;7.71;59.73;97203.22;5072060;28;20119;-46
2024/02/24 03:21:36;;;;;;;1.55;0.55;;;;;;;7.65;60.51;97220.56;5072006;28;20441;-46
2024/02/24 03:24:02;;;;;;;1.67;0.60;;;;;;;7.68;60.16;97195.81;5072001;28;20024;-46
2024/02/24 03:26:28;;;;;;;2.90;0.70;;;;;;;7.66;60.40;97219.53;5071926;28;20024;-47
2024/02/24 03:28:54;;;;;;;1.20;0.57;;;;;;;7.77;60.22;97197.13;5070400;28;20049;-46
2024/02/24 03:31:20;;;;;;;1.95;0.90;;;;;;;7.79;60.22;97201.09;5071850;28;20020;-47
2024/02/24 03:33:46;;;;;;;3.75;0.70;;;;;;;7.84;60.28;97204.88;5071907;28;20032;-47
2024/02/24 03:36:13;;;;;;;6.18;0.85;;;;;;;7.93;60.29;97208.78;5071825;28;20016;-46
2024/02/24 03:38:39;;;;;;;1.33;0.55;;;;;;;8.04;59.38;97196.78;5071815;28;20029;-46
2024/02/24 03:41:05;;;;;;;1.08;0.50;;;;;;;7.96;59.82;97210.94;5070475;28;20028;-46
2024/02/24 03:43:31;;;;;;;6.68;0.98;;;;;;;7.89;60.19;97211.03;5071832;28;20021;-46
2024/02/24 03:45:56;;;;;;;2.08;0.80;;;;;;;8.00;59.95;97217.34;5071774;28;20031;-46
2024/02/24 03:48:22;;;;;;;3.15;2.58;;;;;;;7.93;59.82;97224.47;5070331;28;20111;-46
2024/02/24 03:50:48;;;;;;;2.33;0.70;;;;;;;7.93;60.00;97208.78;5070388;28;20027;-46
2024/02/24 03:53:14;;;;;;;2.85;1.48;;;;;;;7.90;60.17;97204.00;5070382;28;20028;-46
2024/02/24 03:55:40;;;;;;;0.73;0.40;;;;;;;7.91;59.54;97219.47;5071914;28;20459;-47
2024/02/24 03:58:06;;;;;;;1.10;0.57;;;;;;;7.79;60.34;97203.72;5070353;28;20557;-46
2024/02/24 04:00:34;;;;;;;2.40;1.67;;;;;;;7.71;60.18;97201.41;5073238;28;20437;-46
2024/02/24 04:03:01;;;;;;;2.50;1.25;;;;;;;7.69;60.39;97203.44;5075759;28;20668;-46
2024/02/24 04:05:27;;;;;;;2.05;0.90;;;;;;;7.67;60.86;97209.91;5075672;28;20028;-46
2024/02/24 04:07:53;;;;;;;4.35;1.30;;;;;;;7.66;60.66;97218.72;5075501;28;20403;-46
2024/02/24 04:10:19;;;;;;;2.50;1.00;;;;;;;7.69;61.66;97226.16;5075553;28;20561;-46
2024/02/24 04:12:44;;;;;;;1.58;0.70;;;;;;;7.77;60.98;97228.47;5074273;28;20021;-46
2024/02/24 04:15:12;;;;;;;3.70;1.35;;;;;;;7.74;60.78;97218.44;5075461;28;20044;-46
2024/02/24 04:17:38;;;;;;;2.28;1.10;;;;;;;7.85;60.44;97236.00;5075377;28;20498;-46
2024/02/24 04:20:05;;;;;;;3.80;1.20;;;;;;;7.80;60.30;97244.47;5075426;28;20067;-46
2024/02/24 04:22:30;;;;;;;1.00;0.52;;;;;;;7.80;60.58;97234.03;5075395;28;20024;-46
2024/02/24 04:24:56;;;;;;;0.93;0.82;;;;;;;7.82;60.21;97246.09;5073995;28;20028;-46
2024/02/24 04:27:22;;;;;;;5.57;1.13;;;;;;;7.80;60.18;97262.75;5075483;28;20020;-46
2024/02/24 04:29:47;;;;;;;6.78;5.18;;;;;;;7.71;60.81;97258.84;5074913;28;20537;-47
2024/02/24 04:32:13;;;;;;;3.35;1.48;;;;;;;7.73;60.72;97271.69;5075360;28;20031;-46
2024/02/24 04:34:39;;;;;;;2.90;1.20;;;;;;;7.79;60.55;97274.22;5073924;28;20025;-47
2024/02/24 04:37:04;;;;;;;5.00;1.60;;;;;;;7.84;60.88;97285.84;5075124;28;20021;-46
2024/02/24 04:39:30;;;;;;;5.10;3.00;;;;;;;7.93;60.57;97293.19;5073730;28;20071;-46
2024/02/24 04:41:56;;;;;;;2.75;1.50;;;;;;;8.00;60.08;97293.88;5074990;28;20103;-46
2024/02/24 04:44:21;;;;;;;3.38;1.05;;;;;;;8.00;60.02;97293.09;5073603;28;20115;-46
2024/02/24 04:46:47;;;;;;;3.05;1.52;;;;;;;8.03;60.02;97297.91;5074904;28;20154;-46
2024/02/24 04:49:13;;;;;;;5.20;3.47;;;;;;;8.25;60.66;97300.03;5074815;28;20033;-46
2024/02/24 04:51:38;;;;;;;3.38;2.08;;;;;;;8.40;60.23;97297.84;5074824;28;20028;-46
2024/02/24 04:54:04;;;;;;;5.45;2.72;;;;;;;8.44;59.40;97300.88;5074813;28;20032;-47
2024/02/24 04:56:30;;;;;;;2.60;1.95;;;;;;;8.44;58.73;97299.03;5073468;28;20028;-46
2024/02/24 04:58:56;;;;;;;4.00;2.33;;;;;;;8.36;59.12;97300.09;5074773;28;20052;-46
2024/02/24 05:01:21;;;;;;;4.60;0.80;;;;;;;8.40;59.27;97292.63;5074705;28;20025;-47
2024/02/24 05:03:47;;;;;;;6.43;5.40;;;;;;;8.33;59.32;97287.50;5073479;28;20025;-47
2024/02/24 05:06:13;;;;;;;4.18;1.67;;;;;;;8.41;58.96;97294.28;5074506;28;20494;-47
2024/02/24 05:08:38;;;;;;;2.67;1.58;;;;;;;8.47;58.75;97301.22;5073181;28;20035;-47
2024/02/24 05:11:04;;;;;;;5.88;1.15;;;;;;;8.45;59.21;97300.66;5074365;28;20066;-46
2024/02/24 05:13:30;;;;;;;2.33;1.02;;;;;;;8.54;59.32;97311.59;5074697;28;20036;-47
2024/02/24 05:15:56;;;;;;;1.15;0.93;;;;;;;8.55;58.69;97314.00;5074336;28;20033;-46
2024/02/24 05:18:21;;;;;;;3.92;2.28;;;;;;;8.43;58.86;97317.56;5074350;28;20033;-46
2024/02/24 05:20:47;;;;;;;6.43;5.60;;;;;;;8.28;58.79;97315.31;5072951;28;20078;-46
2024/02/24 05:23:13;;;;;;;4.47;3.60;;;;;;;8.20;59.53;97325.03;5074263;28;20035;-46
2024/02/24 05:25:38;;;;;;;3.05;1.95;;;;;;;8.08;59.91;97332.00;5074147;28;20025;-46
2024/02/24 05:28:04;;;;;;;4.28;1.63;;;;;;;8.15;60.99;97342.41;5073757;28;20097;-46
2024/02/24 05:30:30;;;;;;;9.90;8.82;;;;;;;8.11;60.06;97335.97;5074357;28;20108;-47
2024/02/24 05:32:55;;;;;;;4.55;3.88;;;;;;;8.12;60.89;97343.59;5074106;28;20550;-47
2024/02/24 05:35:21;;;;;;;5.57;1.70;;;;;;;8.09;60.73;97348.47;5074244;28;20017;-46
2024/02/24 05:37:47;;;;;;;5.28;3.38;;;;;;;8.04;60.55;97343.09;5073999;28;20033;-46
2024/02/24 05:40:15;;;;;;;4.63;1.10;;;;;;;7.91;60.88;97337.00;5073902;28;20021;-46
2024/02/24 05:42:41;;;;;;;3.20;1.42;;;;;;;7.90;61.35;97347.66;5073930;28;20020;-46
2024/02/24 05:45:07;;;;;;;2.10;1.83;;;;;;;7.98;61.59;97342.16;5072510;28;20416;-46
2024/02/24 05:47:33;;;;;;;3.30;2.20;;;;;;;8.03;61.51;97337.09;5073767;28;20020;-47
2024/02/24 05:49:59;;;;;;;4.20;1.38;;;;;;;8.11;61.61;97341.19;5073721;28;20055;-47
2024/02/24 05:52:25;;;;;;;8.02;1.35;;;;;;;8.08;60.87;97342.44;5073712;28;20110;-46
2024/02/24 05:54:50;;;;;;;1.55;0.63;;;;;;;8.01;61.00;97339.13;5073662;28;20059;-47
2024/02/24 05:57:16;;;;;;;4.60;1.38;;;;;;;7.89;61.41;97339.03;5072282;28;20025;-46
2024/02/24 05:59:41;;;;;;;4.35;2.08;;;;;;;7.86;62.14;97329.00;5072238;28;20036;-46
2024/02/24 06:02:07;;;;;;;5.35;1.83;;;;;;;7.85;61.78;97331.81;5072215;28;20020;-46
2024/02/24 06:04:33;;;;;;;5.43;1.10;;;;;;;7.87;62.30;97335.03;5072126;28;20137;-46
2024/02/24 06:06:59;;;;;;;3.30;1.77;;;;;;;7.83;62.38;97333.84;5073634;28;20074;-46
2024/02/24 06:09:25;;;;;;;1.98;0.95;;;;;;;7.79;62.38;97333.50;5071972;28;20024;-46
2024/02/24 06:11:51;;;;;;;2.67;0.90;;;;;;;7.80;62.36;97337.69;5071974;28;20024;-47
2024/02/24 06:14:16;;;;;;;2.17;1.00;;;;;;;7.85;62.49;97337.03;5073444;28;20028;-46
2024/02/24 06:16:42;;;;;;;2.75;1.65;;;;;;;7.85;62.72;97335.25;5071933;28;20491;-46
2024/02/24 06:19:08;;;;;;;2.95;1.48;;;;;;;7.88;62.44;97329.59;5071807;28;20387;-46
2024/02/24 06:21:34;;;;;;;2.45;1.27;;;;;;;7.82;62.03;97338.28;5071772;28;20511;-46
2024/02/24 06:23:59;;;;;;;6.25;1.33;;;;;;;7.71;62.39;97328.56;5072527;28;20029;-46
2024/02/24 06:26:25;;;;;;;2.33;1.15;;;;;;;7.67;62.75;97330.81;5055022;28;20492;-46
2024/02/24 06:28:51;;;;;;;3.50;1.60;;;;;;;7.64;63.71;97341.66;5072695;28;20087;-46
2024/02/24 06:31:18;;;;;;;2.95;1.40;;;;;;;7.70;63.08;97350.47;5071584;28;20032;-47
2024/02/24 06:33:43;;;;;;;2.17;1.38;;;;;;;7.72;62.71;97337.97;5072828;28;20031;-46
2024/02/24 06:36:09;;;;;;;3.15;1.00;;;;;;;7.63;62.69;97342.69;5072810;28;20115;-46
2024/02/24 06:38:35;;;;;;;1.65;0.95;;;;;;;7.62;63.21;97350.72;5071488;28;20040;-46
2024/02/24 06:41:00;;;;;;;1.88;1.00;;;;;;;7.54;62.63;97351.78;5071402;28;20035;-46
2024/02/24 06:43:26;;;;;;;1.98;1.20;;;;;;;7.51;63.23;97352.22;5071380;28;20025;-46
2024/02/24 06:45:52;;;;;;;4.20;1.05;;;;;;;7.66;63.39;97333.63;5071315;28;20036;-47
2024/02/24 06:48:17;;;;;;;114.63;96.40;;;;;;;7.84;62.77;97343.31;5071163;28;20032;-46
2024/02/24 06:50:43;;;;;;;32.63;24.92;;;;;;;7.93;62.21;97357.69;5071263;28;20111;-47
2024/02/24 06:53:09;;;;;;;12.27;7.20;;;;;;;8.02;61.79;97345.94;5072489;28;20459;-46
2024/02/24 06:55:34;;;;;;;7.03;4.70;;;;;;;8.08;61.88;97347.66;5071115;28;20032;-46
2024/02/24 06:58:00;;;;;;;6.32;3.42;;;;;;;8.14;61.39;97357.25;5071119;28;20024;-47
2024/02/24 07:00:26;;;;;;;7.53;5.45;;;;;;;8.25;61.16;97362.78;5070980;28;20052;-46
2024/02/24 07:02:53;;;;;;;3.60;1.90;;;;;;;8.42;60.93;97369.06;5072345;28;20028;-46
2024/02/24 07:05:19;;;;;;;3.28;2.30;;;;;;;8.52;60.38;97371.16;5054505;28;20028;-47
2024/02/24 07:07:45;;;;;;;4.10;1.83;;;;;;;8.70;60.15;97367.72;5070914;28;20025;-46
2024/02/24 07:10:10;;;;;;;1.88;1.27;;;;;;;9.19;58.31;97376.31;5072048;28;20047;-47
2024/02/24 07:12:36;;;;;;;5.47;4.57;;;;;;;9.18;61.80;97385.19;5072428;28;20033;-47
2024/02/24 07:15:02;;;;;;;17.60;12.40;;;;;;;9.13;60.61;97382.44;5072123;28;20372;-47
2024/02/24 07:17:28;;;;;;;3.70;1.42;;;;;;;9.13;60.35;97395.53;5070788;28;20113;-47
2024/02/24 07:19:54;;;;;;;5.53;1.98;;;;;;;9.06;62.00;97381.75;5072123;28;20024;-47
2024/02/24 07:22:21;;;;;;;4.20;1.15;;;;;;;9.05;59.63;97396.63;5071981;28;20399;-47
2024/02/24 07:24:47;;;;;;;3.80;1.00;;;;;;;9.16;58.80;97416.81;5071937;28;20505;-47
2024/02/24 07:27:13;;;;;;;2.75;1.40;;;;;;;9.28;58.01;97410.84;5071916;28;20021;-47
2024/02/24 07:29:39;;;;;;;10.98;9.85;;;;;;;9.26;57.15;97420.72;5071165;28;20105;-47
2024/02/24 07:32:05;;;;;;;9.00;5.68;;;;;;;9.29;57.34;97402.75;5071902;28;20033;-46
2024/02/24 07:34:30;;;;;;;7.97;4.82;;;;;;;9.34;57.45;97421.22;5071087;28;20021;-46
2024/02/24 07:36:57;;;;;;;2.28;1.88;;;;;;;9.36;57.08;97431.47;5072031;28;20111;-49
2024/02/24 07:39:23;;;;;;;4.45;1.27;;;;;;;9.34;56.97;97436.91;5072044;28;20029;-47
2024/02/24 07:41:48;;;;;;;3.53;1.17;;;;;;;9.37;57.21;97428.59;5053836;28;20400;-47
2024/02/24 07:44:14;;;;;;;3.17;1.02;;;;;;;9.49;57.09;97433.88;5070425;28;20025;-48
2024/02/24 07:46:40;;;;;;;3.95;1.10;;;;;;;9.48;56.49;97444.59;5070434;28;20040;-49
2024/02/24 07:49:06;;;;;;;2.28;1.15;;;;;;;9.48;56.32;97439.34;5071606;28;20440;-49
2024/02/24 07:51:31;;;;;;;4.78;1.42;;;;;;;9.45;56.74;97465.97;5070366;28;20515;-49
2024/02/24 07:53:57;;;;;;;3.35;0.98;;;;;;;9.39;55.73;97451.94;5071743;28;20020;-49
2024/02/24 07:56:24;;;;;;;2.97;1.00;;;;;;;9.34;56.26;97418.59;5071610;28;20560;-49
2024/02/24 07:58:50;;;;;;;5.25;3.88;;;;;;;9.44;56.49;97470.44;5071568;28;20032;-49
2024/02/24 08:01:17;;;;;;;1.63;0.80;;;;;;;9.44;55.57;97444.25;5070387;28;20734;-49
2024/02/24 08:03:43;;;;;;;3.67;0.75;;;;;;;9.36;54.95;97470.75;5071625;28;20367;-49
2024/02/24 08:06:09;;;;;;;4.43;0.80;;;;;;;9.32;56.11;97475.63;5071521;28;20052;-49
2024/02/24 08:08:36;;;;;;;7.75;4.60;;;;;;;9.40;56.86;97469.28;5070163;28;20583;-49
2024/02/24 08:11:03;;;;;;;4.32;1.13;;;;;;;9.60;55.79;97488.13;5071518;28;20051;-49
2024/02/24 08:13:29;;;;;;;2.20;1.30;;;;;;;9.65;55.31;97490.06;5071436;28;20029;-49
2024/02/24 08:15:55;;;;;;;1.77;0.80;;;;;;;9.60;55.08;97493.34;5071433;28;20024;-49
2024/02/24 08:18:24;;;;;;;2.88;0.63;;;;;;;9.60;54.87;97492.56;5071486;28;20028;-49
2024/02/24 08:20:50;;;;;;;4.95;1.15;;;;;;;9.53;54.71;97500.50;5071424;28;20017;-49
2024/02/24 08:23:16;;;;;;;4.47;0.85;;;;;;;9.57;55.02;97503.47;5071338;28;20028;-49
2024/02/24 08:25:42;;;;;;;2.15;1.15;;;;;;;9.51;55.40;97523.50;5071361;28;20021;-49
2024/02/24 08:28:08;;;;;;;2.20;0.80;;;;;;;9.42;55.28;97513.53;5071041;28;20571;-50
2024/02/24 08:30:34;;;;;;;3.33;1.80;;;;;;;9.43;55.28;97496.81;5071298;28;20024;-49
2024/02/24 08:32:59;;;;;;;7.88;5.25;;;;;;;9.44;55.89;97533.28;5069998;28;20028;-49
2024/02/24 08:35:25;;;;;;;1.30;0.82;;;;;;;9.47;56.11;97532.81;5071272;28;20044;-49
2024/02/24 08:37:51;;;;;;;14.38;11.82;;;;;;;9.46;55.32;97523.38;5069976;28;20115;-49
2024/02/24 08:40:17;;;;;;;24.70;19.20;;;;;;;9.43;56.44;97541.34;5071244;28;20024;-49
2024/02/24 08:42:44;;;;;;;15.48;9.77;;;;;;;9.28;57.10;97554.81;5069957;28;20145;-49
2024/02/24 08:45:10;;;;;;;11.07;5.32;;;;;;;9.16;58.90;97552.94;5071139;28;20100;-49
2024/02/24 08:47:36;;;;;;;9.80;2.00;;;;;;;9.17;58.91;97551.09;5074296;28;20024;-48
2024/02/24 08:50:03;;;;;;;86.22;62.60;;;;;;;9.24;59.11;97562.31;5074809;28;20029;-48
2024/02/24 08:52:29;;;;;;;16.35;10.35;;;;;;;9.14;59.67;97557.59;5074799;28;20023;-49
2024/02/24 08:54:55;;;;;;;33.35;20.08;;;;;;;9.11;60.01;97554.59;5074765;28;20107;-48
2024/02/24 08:57:21;;;;;;;9.60;7.43;;;;;;;9.23;59.83;97568.56;5074735;28;20375;-49
2024/02/24 08:59:48;;;;;;;4.03;1.58;;;;;;;9.25;58.30;97557.88;5073428;28;20085;-49
2024/02/24 09:02:19;;;;;;;2.53;1.15;;;;;;;9.21;58.46;97554.88;5074551;28;20033;-48
2024/02/24 09:04:44;;;;;;;3.20;1.40;;;;;;;9.30;58.67;97558.81;5074675;28;20020;-48
2024/02/24 09:07:10;;;;;;;4.68;1.35;;;;;;;9.62;57.44;97563.88;5073172;28;20028;-49
2024/02/24 09:09:36;;;;;;;3.20;1.40;;;;;;;9.87;57.24;97563.72;5073176;28;20028;-49
2024/02/24 09:12:02;;;;;;;6.15;3.42;;;;;;;9.99;55.38;97561.13;5074389;28;20032;-49
2024/02/24 09:14:28;;;;;;;3.03;0.95;;;;;;;10.07;54.93;97539.84;5074408;28;20086;-49
2024/02/24 09:16:55;;;;;;;3.13;1.52;;;;;;;10.22;55.50;97560.38;5074400;28;20024;-49
2024/02/24 09:19:22;;;;;;;5.75;2.67;;;;;;;10.52;54.97;97554.28;5074320;28;20028;-48
2024/02/24 09:21:48;;;;;;;5.53;1.33;;;;;;;10.76;53.11;97548.00;5074305;28;20082;-49
2024/02/24 09:24:14;;;;;;;4.45;2.30;;;;;;;10.90;53.52;97545.16;5074251;28;20031;-49
2024/02/24 09:26:40;;;;;;;10.25;5.35;;;;;;;11.06;52.97;97554.94;5074173;28;20091;-49
2024/02/24 09:29:06;;;;;;;2.53;1.58;;;;;;;11.26;52.53;97553.75;5073734;28;20072;-49
2024/02/24 09:31:33;;;;;;;16.42;14.80;;;;;;;11.48;50.63;97548.66;5072746;28;20121;-48
2024/02/24 09:33:58;;;;;;;2.40;1.45;;;;;;;11.55;50.21;97551.94;5074159;28;20048;-49
2024/02/24 09:36:24;;;;;;;2.50;1.75;;;;;;;11.55;50.59;97562.44;5074235;28;20040;-47
2024/02/24 09:38:51;;;;;;;6.78;3.08;;;;;;;11.59;49.67;97553.88;5074030;28;20040;-47
2024/02/24 09:41:20;;;;;;;7.00;4.40;;;;;;;11.67;48.69;97552.72;5073866;28;20016;-49
2024/02/24 09:43:46;;;;;;;3.50;1.67;;;;;;;11.76;48.81;97558.38;5073909;28;20056;-49
2024/02/24 09:46:15;;;;;;;5.82;1.10;;;;;;;11.84;48.91;97547.50;5072469;28;20024;-49
2024/02/24 09:48:42;;;;;;;3.78;1.40;;;;;;;12.14;49.55;97554.34;5073697;28;20096;-49
2024/02/24 09:51:09;;;;;;;4.68;1.48;;;;;;;12.87;47.71;97563.06;5073754;28;20390;-49
2024/02/24 09:53:35;;;;;;;4.03;1.75;;;;;;;13.33;46.36;97550.50;5072512;28;20025;-49
2024/02/24 09:56:02;;;;;;;1.83;1.00;;;;;;;13.29;44.96;97559.13;5073658;28;20025;-49
2024/02/24 09:58:32;;;;;;;3.60;0.90;;;;;;;13.50;44.10;97558.34;5071354;28;20028;-49
2024/02/24 10:01:00;;;;;;;3.50;3.15;;;;;;;13.78;43.13;97564.41;5072207;28;20024;-49
2024/02/24 10:03:27;;;;;;;2.20;1.00;;;;;;;13.82;42.41;97562.88;5073492;28;20020;-47
2024/02/24 10:05:53;;;;;;;7.03;1.27;;;;;;;13.88;42.46;97534.72;5073444;28;20025;-47
2024/02/24 10:08:19;;;;;;;3.90;2.38;;;;;;;13.71;44.21;97569.91;5073332;28;20028;-47
2024/02/24 10:10:46;;;;;;;22.98;20.77;;;;;;;13.73;42.92;97575.72;5073416;28;20016;-49
2024/02/24 10:13:17;;;;;;;5.28;4.70;;;;;;;13.78;42.79;97580.22;5073359;28;20025;-49
2024/02/24 10:15:45;;;;;;;6.97;2.30;;;;;;;14.26;43.69;97575.16;5072002;28;20513;-49
2024/02/24 10:18:14;;;;;;;3.85;2.78;;;;;;;14.79;41.87;97576.09;5073243;28;20505;-49
2024/02/24 10:20:41;;;;;;;4.78;2.28;;;;;;;15.64;39.23;97575.97;5073055;28;20021;-49
2024/02/24 10:23:07;;;;;;;2.55;1.00;;;;;;;16.62;37.39;97576.88;5073098;28;20020;-45
2024/02/24 10:25:33;;;;;;;3.63;1.58;;;;;;;17.75;36.46;97561.41;5073060;28;20024;-45
2024/02/24 10:27:58;;;;;;;1.13;0.73;;;;;;;18.84;33.72;97567.50;5072982;28;20029;-46
2024/02/24 10:30:24;;;;;;;3.17;1.30;;;;;;;19.11;32.51;97568.81;5071494;28;20047;-46
2024/02/24 10:32:52;;;;;;;1.52;0.70;;;;;;;19.57;32.00;97573.59;5072881;28;20020;-46
2024/02/24 10:35:18;;;;;;;2.47;0.85;;;;;;;20.30;31.23;97568.84;5071477;28;20082;-46
2024/02/24 10:37:44;;;;;;;2.13;0.90;;;;;;;20.63;29.63;97563.53;5071554;28;20086;-45
2024/02/24 10:40:12;;;;;;;1.83;0.95;;;;;;;19.92;29.73;97566.22;5072797;28;20429;-45
2024/02/24 10:42:40;;;;;;;2.10;1.30;;;;;;;19.18;31.72;97568.50;5071474;28;20024;-47
2024/02/24 10:45:09;;;;;;;2.28;0.93;;;;;;;19.51;31.47;97561.41;5071293;28;20111;-47
2024/02/24 10:47:36;;;;;;;1.80;0.90;;;;;;;19.70;31.02;97562.25;5072587;28;20017;-48
2024/02/24 10:50:10;;;;;;;3.05;1.00;;;;;;;20.27;30.26;97561.44;5072742;28;20024;-47
2024/02/24 10:52:37;;;;;;;3.03;1.30;;;;;;;20.33;29.85;97557.59;5072664;28;20063;-47
2024/02/24 10:55:05;;;;;;;1.10;0.70;;;;;;;20.69;29.55;97565.03;5072501;28;20029;-47
2024/02/24 10:57:35;;;;;;;1.55;0.70;;;;;;;21.02;27.90;97557.75;5072368;28;20555;-47
2024/02/24 11:00:24;;;;;;;2.92;1.08;;;;;;;21.22;27.78;97564.56;5072328;28;20032;-47
2024/02/24 11:02:53;;;;;;;1.42;0.68;;;;;;;21.44;27.68;97568.44;5072413;28;20555;-47
2024/02/24 11:05:20;;;;;;;2.83;0.80;;;;;;;21.22;27.74;97555.78;5072308;28;20056;-46
2024/02/24 11:07:46;;;;;;;2.28;0.65;;;;;;;20.83;26.69;97555.16;5072300;28;20394;-46
2024/02/24 11:10:22;;;;;;;2.28;1.00;;;;;;;20.06;28.01;97560.94;5070709;28;20021;-46
2024/02/24 11:12:51;;;;;;;1.40;0.60;;;;;;;19.97;28.34;97549.38;5072184;28;20017;-46
2024/02/24 11:15:19;;;;;;;14.30;12.90;;;;;;;20.50;27.73;97557.03;5072123;28;20023;-47
2024/02/24 11:17:50;;;;;;;2.92;2.30;;;;;;;20.31;27.22;97549.13;5071998;28;20094;-47
2024/02/24 11:20:37;;;;;;;1.73;1.35;;;;;;;20.29;27.86;97541.41;5072063;28;20025;-48
2024/02/24 11:23:21;;;;;;;2.10;0.70;;;;;;;20.35;28.05;97534.13;5071917;28;20037;-47
2024/02/24 11:25:48;;;;;;;2.50;0.70;;;;;;;19.80;27.86;97536.56;5072013;28;20063;-47
2024/02/24 11:28:21;;;;;;;0.95;0.63;;;;;;;18.83;28.83;97533.22;5069955;28;20028;-48
2024/02/24 11:30:53;;;;;;;1.15;0.60;;;;;;;18.84;28.86;97534.81;5071919;28;20064;-47
2024/02/24 11:33:24;;;;;;;8.55;0.80;;;;;;;19.35;28.51;97545.66;5070635;28;20032;-47
2024/02/24 11:35:51;;;;;;;5.03;1.15;;;;;;;19.83;27.81;97536.00;5070524;28;20082;-47